Time;durP1;ratioP1;P1;durP2;ratioP2;P2;SDS_P1;SDS_P2;PMS_P1;PMS_P2;Temp;Humidity;BMP_temperature;BMP_pressure;BME280_temperature;BME280_humidity;BME280_pressure;Samples;Min_cycle;Max_cycle;Signal;HPM_P1;HPM_P2
2022/02/06 00:00:01;;;;;;;;;;;;;;;-0.92;100.00;96329.50;1039016;28;19917;-68
2022/02/06 00:00:31;;;;;;;;;;;;;;;-0.98;100.00;96322.47;1038844;28;19967;-67
2022/02/06 00:01:02;;;;;;;;;;;;;;;-1.03;100.00;96323.00;1034697;28;19928;-68
2022/02/06 00:01:34;;;;;;;;;;;;;;;-0.92;100.00;96329.50;1033874;28;19952;-68
2022/02/06 00:02:05;;;;;;;;;;;;;;;-0.91;100.00;96323.38;1026536;28;19953;-67
2022/02/06 00:02:37;;;;;;;;;;;;;;;-0.86;100.00;96322.84;1027140;28;19914;-68
2022/02/06 00:03:08;;;;;;;;;;;;;;;-0.84;100.00;96320.88;1026876;28;19993;-69
2022/02/06 00:03:39;;;;;;;;;;;;;;;-0.85;100.00;96317.50;1027005;28;20393;-66
2022/02/06 00:04:09;;;;;;;;;;;;;;;-0.82;100.00;96322.31;1031342;28;19953;-68
2022/02/06 00:04:42;;;;;;;;;;;;;;;-0.72;100.00;96328.00;1030729;28;20514;-67
2022/02/06 00:05:14;;;;;;;;;;;;;;;-0.71;100.00;96319.28;1030925;28;20197;-67
2022/02/06 00:05:45;;;;;;;;;;;;;;;-0.71;100.00;96329.59;1031058;28;19917;-68
2022/02/06 00:06:15;;;;;;;;;;;;;;;-0.66;100.00;96328.28;1035298;28;19917;-66
2022/02/06 00:06:45;;;;;;;;;;;;;;;-0.67;100.00;96327.50;1034747;28;19929;-68
2022/02/06 00:07:16;;;;;;;;;;;;;;;-0.71;100.00;96321.06;1030706;28;19914;-67
2022/02/06 00:07:48;;;;;;;;;;;;;;;-0.69;100.00;96326.84;1026765;28;19929;-68
2022/02/06 00:08:18;;;;;;;;;;;;;;;-0.73;100.00;96329.00;1022972;28;19970;-67
2022/02/06 00:08:49;;;;;;;;;;;;;;;-0.76;100.00;96331.13;1026663;28;19922;-68
2022/02/06 00:09:19;;;;;;;;;;;;;;;-0.78;100.00;96331.28;1023124;28;19910;-68
2022/02/06 00:09:49;;;;;;;;;;;;;;;-0.76;100.00;96331.91;1027043;28;19914;-68
2022/02/06 00:10:20;;;;;;;;;;;;;;;-0.78;100.00;96338.22;1030721;28;20569;-68
2022/02/06 00:10:50;;;;;;;;;;;;;;;-0.73;100.00;96331.56;1030727;28;20004;-67
2022/02/06 00:11:20;;;;;;;;;;;;;;;-0.80;100.00;96333.25;1026786;28;19918;-68
2022/02/06 00:11:51;;;;;;;;;;;;;;;-0.79;100.00;96334.06;1026762;28;19914;-68
2022/02/06 00:12:21;;;;;;;;;;;;;;;-0.80;100.00;96332.47;1026915;28;19970;-68
2022/02/06 00:12:51;;;;;;;;;;;;;;;-0.82;100.00;96330.03;1030752;28;19914;-68
2022/02/06 00:13:21;;;;;;;;;;;;;;;-0.84;100.00;96331.19;1030337;28;19914;-67
2022/02/06 00:13:52;;;;;;;;;;;;;;;-0.82;100.00;96330.03;1031441;28;19921;-68
2022/02/06 00:14:22;;;;;;;;;;;;;;;-0.82;100.00;96330.03;1038675;28;19913;-68
2022/02/06 00:14:53;;;;;;;;;;;;;;;-0.74;100.00;96329.97;1034763;28;20359;-68
2022/02/06 00:15:23;;;;;;;;;;;;;;;-0.73;100.00;96323.84;1034976;28;19925;-67
2022/02/06 00:15:54;;;;;;;;;;;;;;;-0.77;100.00;96327.75;1034122;28;19918;-67
2022/02/06 00:16:24;;;;;;;;;;;;;;;-0.69;100.00;96326.06;1030973;28;19914;-67
2022/02/06 00:16:54;;;;;;;;;;;;;;;-0.76;100.00;96323.41;1026768;28;19918;-68
2022/02/06 00:17:29;;;;;;;;;;;;;;;-0.81;100.00;96323.91;1030786;28;19937;-68
2022/02/06 00:17:59;;;;;;;;;;;;;;;-0.81;100.00;96318.75;1032249;28;19921;-68
2022/02/06 00:18:30;;;;;;;;;;;;;;;-0.80;100.00;96324.72;1034747;28;19913;-67
2022/02/06 00:19:00;;;;;;;;;;;;;;;-0.83;100.00;96315.56;1031986;28;19922;-68
2022/02/06 00:19:30;;;;;;;;;;;;;;;-0.79;100.00;96323.75;1034992;28;19924;-67
2022/02/06 00:20:01;;;;;;;;;;;;;;;-0.76;100.00;96319.03;1030902;28;19918;-67
2022/02/06 00:20:40;;;;;;;;;;;;;;;-0.80;100.00;96322.94;1031122;28;19914;-67
2022/02/06 00:21:14;;;;;;;;;;;;;;;-0.81;100.00;96321.31;1026861;28;19925;-68
2022/02/06 00:21:45;;;;;;;;;;;;;;;-0.84;100.00;96320.88;1028678;28;19918;-67
2022/02/06 00:22:29;;;;;;;;;;;;;;;-0.84;100.00;96316.56;1032240;28;19953;-65
2022/02/06 00:23:03;;;;;;;;;;;;;;;-1.08;100.00;96284.09;1037331;28;19929;-70
2022/02/06 00:23:34;;;;;;;;;;;;;;;-0.84;100.00;96316.56;1034085;28;19984;-65
2022/02/06 00:24:07;;;;;;;;;;;;;;;-0.76;100.00;96313.88;1034731;28;19917;-68
2022/02/06 00:24:57;;;;;;;;;;;;;;;-0.80;100.00;96310.06;1031095;28;20379;-67
2022/02/06 00:27:08;;;;;;;;;;;;;;;-0.86;100.00;96315.91;1041904;28;19916;-68
2022/02/06 00:28:54;;;;;;;;;;;;;;;-0.86;100.00;96307.41;1038067;28;20568;-67
2022/02/06 00:29:37;;;;;;;;;;;;;;;-0.84;100.00;96305.44;1038122;28;19913;-68
2022/02/06 00:30:25;;;;;;;;;;;;;;;-0.89;100.00;96313.69;1037957;28;19918;-68
2022/02/06 00:31:02;;;;;;;;;;;;;;;-0.88;100.00;96310.13;1034097;28;19961;-68
2022/02/06 00:31:51;;;;;;;;;;;;;;;-0.91;100.00;96310.47;1027942;28;19921;-68
2022/02/06 00:32:34;;;;;;;;;;;;;;;-0.89;100.00;96302.59;1030966;28;19968;-68
2022/02/06 00:33:11;;;;;;;;;;;;;;;-0.88;100.00;96311.91;1032271;28;19914;-68
2022/02/06 00:34:13;;;;;;;;;;;;;;;-0.88;100.00;96306.75;1030175;28;19925;-67
2022/02/06 00:36:02;;;;;;;;;;;;;;;-0.78;100.00;96297.78;1035239;28;19910;-67
2022/02/06 00:39:32;;;;;;;;;;;;;;;-0.87;100.00;96295.47;1036637;28;19975;-69
2022/02/06 00:40:05;;;;;;;;;;;;;;;-0.89;100.00;96298.25;1030606;28;19921;-67
2022/02/06 00:41:25;;;;;;;;;;;;;;;-0.83;100.00;96299.31;1034708;28;19921;-68
2022/02/06 00:41:56;;;;;;;;;;;;;;;-0.82;100.00;96293.97;1030543;28;19914;-68
2022/02/06 00:42:26;;;;;;;;;;;;;;;-0.80;100.00;96297.19;1033546;28;19917;-67
2022/02/06 00:42:56;;;;;;;;;;;;;;;-0.81;100.00;96290.41;1037118;28;20357;-68
2022/02/06 00:43:27;;;;;;;;;;;;;;;-0.85;100.00;96289.19;1034563;28;20584;-67
2022/02/06 00:44:02;;;;;;;;;;;;;;;-0.77;100.00;96289.09;1034682;28;20649;-68
2022/02/06 00:44:32;;;;;;;;;;;;;;;-0.73;100.00;96289.56;1037756;28;19939;-67
2022/02/06 00:45:03;;;;;;;;;;;;;;;-0.73;100.00;96289.56;1031563;28;19992;-69
2022/02/06 00:45:33;;;;;;;;;;;;;;;-0.80;100.00;96286.88;1035064;28;20561;-68
2022/02/06 00:46:05;;;;;;;;;;;;;;;-0.80;100.00;96286.88;1034729;28;19921;-68
2022/02/06 00:46:37;;;;;;;;;;;;;;;-0.97;100.00;96254.56;1035038;28;19917;-68
2022/02/06 00:47:07;;;;;;;;;;;;;;;-0.72;100.00;96283.41;1035033;28;19916;-67
2022/02/06 00:47:40;;;;;;;;;;;;;;;-0.64;100.00;96287.66;1035545;28;20299;-67
2022/02/06 00:48:10;;;;;;;;;;;;;;;-0.68;100.00;96286.44;1034089;28;20023;-68
2022/02/06 00:48:44;;;;;;;;;;;;;;;-0.69;100.00;96285.63;1035025;28;20420;-67
2022/02/06 00:49:25;;;;;;;;;;;;;;;-0.69;100.00;96290.78;1030917;28;19964;-68
2022/02/06 00:49:57;;;;;;;;;;;;;;;-0.75;100.00;96288.91;1026005;28;19930;-68
2022/02/06 00:50:29;;;;;;;;;;;;;;;-0.77;100.00;96285.69;1022820;29;20396;-67
2022/02/06 00:51:11;;;;;;;;;;;;;;;-0.83;100.00;96284.66;1024480;28;20296;-67
2022/02/06 00:51:55;;;;;;;;;;;;;;;-0.78;100.00;96287.47;1035081;28;20424;-67
2022/02/06 00:52:32;;;;;;;;;;;;;;;-0.71;100.00;96285.00;1046746;28;20671;-68
2022/02/06 00:53:16;;;;;;;;;;;;;;;-0.70;100.00;96286.63;1043094;28;20132;-68
2022/02/06 00:53:46;;;;;;;;;;;;;;;-0.72;100.00;96284.19;1038488;28;19921;-68
2022/02/06 00:54:16;;;;;;;;;;;;;;;-0.69;100.00;96288.22;1038701;28;20330;-68
2022/02/06 00:54:50;;;;;;;;;;;;;;;-0.67;100.00;96285.44;1033433;28;19916;-68
2022/02/06 00:55:20;;;;;;;;;;;;;;;-0.68;100.00;96279.50;1032449;28;20020;-68
2022/02/06 00:55:50;;;;;;;;;;;;;;;-0.67;100.00;96290.59;1034779;28;19928;-68
2022/02/06 00:56:20;;;;;;;;;;;;;;;-0.67;100.00;96280.28;1035046;28;19925;-67
2022/02/06 00:56:51;;;;;;;;;;;;;;;-0.65;100.00;96284.28;1034606;28;19918;-67
2022/02/06 00:57:21;;;;;;;;;;;;;;;-0.65;100.00;96280.91;1034814;28;19921;-68
2022/02/06 00:57:51;;;;;;;;;;;;;;;-0.67;100.00;96282.88;1026705;28;19922;-68
2022/02/06 00:58:22;;;;;;;;;;;;;;;-0.69;100.00;96279.69;1026843;28;20037;-68
2022/02/06 00:58:52;;;;;;;;;;;;;;;-0.77;100.00;96278.81;1030664;28;19929;-68
2022/02/06 00:59:22;;;;;;;;;;;;;;;-0.78;100.00;96284.91;1034984;28;19918;-68
2022/02/06 00:59:53;;;;;;;;;;;;;;;-0.81;100.00;96282.69;1039110;28;19960;-68
2022/02/06 01:00:23;;;;;;;;;;;;;;;-0.83;100.00;96282.09;1038582;28;19921;-68
2022/02/06 01:00:54;;;;;;;;;;;;;;;-0.75;100.00;96274.25;1034714;28;19931;-68
2022/02/06 01:01:24;;;;;;;;;;;;;;;-0.75;100.00;96283.75;1027088;28;19918;-67
2022/02/06 01:01:54;;;;;;;;;;;;;;;-0.67;100.00;96280.28;1023847;28;19918;-67
2022/02/06 01:02:25;;;;;;;;;;;;;;;-0.67;100.00;96275.13;1027526;28;19918;-68
2022/02/06 01:02:55;;;;;;;;;;;;;;;-0.75;100.00;96273.47;1027638;28;19918;-68
2022/02/06 01:03:25;;;;;;;;;;;;;;;-0.72;100.00;96273.91;1031153;28;19914;-67
2022/02/06 01:03:56;;;;;;;;;;;;;;;-0.72;100.00;96279.06;1039254;28;19924;-68
2022/02/06 01:04:28;;;;;;;;;;;;;;;-0.76;100.00;96272.66;1039461;28;19928;-68
2022/02/06 01:04:58;;;;;;;;;;;;;;;-0.77;100.00;96273.66;1035247;28;19957;-68
2022/02/06 01:05:28;;;;;;;;;;;;;;;-0.77;100.00;96276.22;1035597;28;20251;-68
2022/02/06 01:05:59;;;;;;;;;;;;;;;-0.68;100.00;96276.13;1031576;28;20007;-68
2022/02/06 01:06:29;;;;;;;;;;;;;;;-0.70;100.00;96276.31;1027342;28;19930;-67
2022/02/06 01:07:00;;;;;;;;;;;;;;;-0.59;100.00;96272.47;1027261;28;19922;-67
2022/02/06 01:07:31;;;;;;;;;;;;;;;-0.63;100.00;96264.31;1035557;28;20011;-68
2022/02/06 01:08:01;;;;;;;;;;;;;;;-0.65;100.00;96262.88;1035623;28;19922;-67
2022/02/06 01:08:31;;;;;;;;;;;;;;;-0.58;100.00;96269.72;1035405;28;20013;-68
2022/02/06 01:09:02;;;;;;;;;;;;;;;-0.63;100.00;96273.81;1030914;28;19928;-68
2022/02/06 01:09:32;;;;;;;;;;;;;;;-0.68;100.00;96264.03;1031447;28;20454;-69
2022/02/06 01:10:03;;;;;;;;;;;;;;;-0.72;100.00;96262.78;1031423;28;19926;-67
2022/02/06 01:10:33;;;;;;;;;;;;;;;-0.67;100.00;96275.13;1019155;29;19926;-68
2022/02/06 01:11:08;;;;;;;;;;;;;;;-0.55;100.00;96271.13;1019253;29;19942;-68
2022/02/06 01:11:39;;;;;;;;;;;;;;;-0.63;100.00;96272.03;1015668;29;19953;-67
2022/02/06 01:12:09;;;;;;;;;;;;;;;-0.64;100.00;96267.03;1024273;28;19952;-68
2022/02/06 01:12:43;;;;;;;;;;;;;;;-0.57;100.00;96265.34;1028722;28;20014;-68
2022/02/06 01:13:33;;;;;;;;;;;;;;;-0.68;100.00;96276.91;1031709;28;19925;-68
2022/02/06 01:14:17;;;;;;;;;;;;;;;-0.59;100.00;96273.28;1037117;28;20097;-67
2022/02/06 01:15:08;;;;;;;;;;;;;;;-0.57;100.00;96270.50;1030971;28;19914;-66
2022/02/06 01:15:44;;;;;;;;;;;;;;;-0.25;100.00;96267.53;1031859;28;19957;-68
2022/02/06 01:16:21;;;;;;;;;;;;;;;-0.34;100.00;96265.22;1032879;28;19961;-68
2022/02/06 01:17:03;;;;;;;;;;;;;;;-0.24;100.00;96266.53;1035338;28;19917;-68
2022/02/06 01:17:39;;;;;;;;;;;;;;;-0.26;100.00;96263.34;1035439;28;20382;-67
2022/02/06 01:18:17;;;;;;;;;;;;;;;-0.33;100.00;96261.69;1039553;28;19921;-67
2022/02/06 01:19:05;;;;;;;;;;;;;;;-0.28;100.00;96267.09;1038908;28;19932;-68
2022/02/06 01:19:51;;;;;;;;;;;;;;;-0.32;100.00;96263.28;1027406;28;20828;-68
2022/02/06 01:20:28;;;;;;;;;;;;;;;-0.34;100.00;96263.44;1031853;28;20809;-68
2022/02/06 01:21:03;;;;;;;;;;;;;;;-0.45;100.00;96256.19;1043308;28;19920;-68
2022/02/06 01:22:20;;;;;;;;;;;;;;;-0.36;100.00;96256.91;1039442;28;20409;-67
2022/02/06 01:22:59;;;;;;;;;;;;;;;-0.37;100.00;96257.84;1024579;28;19922;-68
2022/02/06 01:23:40;;;;;;;;;;;;;;;-0.39;100.00;96250.31;1030211;28;19925;-68
2022/02/06 01:24:18;;;;;;;;;;;;;;;-0.33;100.00;96257.34;1031127;28;19989;-68
2022/02/06 01:25:50;;;;;;;;;;;;;;;-0.42;100.00;96252.47;1037866;28;19925;-68
2022/02/06 01:26:38;;;;;;;;;;;;;;;-0.42;100.00;96253.25;1039757;28;20876;-68
2022/02/06 01:27:20;;;;;;;;;;;;;;;-0.49;100.00;96248.03;1035584;28;19917;-68
2022/02/06 01:27:59;;;;;;;;;;;;;;;-0.51;100.00;96246.59;1035279;28;19917;-68
2022/02/06 01:28:38;;;;;;;;;;;;;;;-0.53;100.00;96249.38;1035135;28;19925;-68
2022/02/06 01:29:27;;;;;;;;;;;;;;;-0.50;100.00;96253.38;1031176;28;20004;-68
2022/02/06 01:30:09;;;;;;;;;;;;;;;-0.71;100.00;96218.00;1036267;28;20024;-68
2022/02/06 01:31:42;;;;;;;;;;;;;;;-0.57;100.00;96253.28;1038794;28;19921;-68
2022/02/06 01:32:20;;;;;;;;;;;;;;;-0.55;100.00;96247.94;1031089;28;19952;-68
2022/02/06 01:32:59;;;;;;;;;;;;;;;-0.44;100.00;96250.03;1027145;28;19930;-67
2022/02/06 01:33:37;;;;;;;;;;;;;;;-0.50;100.00;96250.78;1028595;28;20458;-68
2022/02/06 01:34:09;;;;;;;;;;;;;;;-0.55;100.00;96253.09;1034371;28;19924;-67
2022/02/06 01:35:17;;;;;;;;;;;;;;;-0.45;100.00;96255.41;1035186;28;19929;-68
2022/02/06 01:35:55;;;;;;;;;;;;;;;-0.54;100.00;96246.94;1035066;28;20434;-67
2022/02/06 01:36:39;;;;;;;;;;;;;;;-0.54;100.00;96252.09;1037185;28;20076;-65
2022/02/06 01:37:29;;;;;;;;;;;;;;;-0.30;100.00;96251.81;1039353;28;19917;-67
2022/02/06 01:38:17;;;;;;;;;;;;;;;-0.19;100.00;96239.44;1034370;28;20518;-67
2022/02/06 01:39:42;;;;;;;;;;;;;;;-0.25;100.00;96234.00;1029541;28;19932;-67
2022/02/06 01:41:12;;;;;;;;;;;;;;;-0.07;100.00;96235.38;1032774;28;19910;-67
2022/02/06 01:41:46;;;;;;;;;;;;;;;-0.15;100.00;96227.75;1041970;28;19920;-67
2022/02/06 01:42:26;;;;;;;;;;;;;;;-0.19;100.00;96231.69;1035149;28;19916;-67
2022/02/06 01:43:02;;;;;;;;;;;;;;;-0.29;100.00;96225.03;1033252;28;19945;-67
2022/02/06 01:43:45;;;;;;;;;;;;;;;-0.36;100.00;96221.59;1034734;28;19910;-68
2022/02/06 01:44:22;;;;;;;;;;;;;;;-0.31;100.00;96219.25;1030724;28;19968;-67
2022/02/06 01:45:32;;;;;;;;;;;;;;;-0.43;100.00;96225.88;1026648;28;19910;-68
2022/02/06 01:46:55;;;;;;;;;;;;;;;-0.43;100.00;96225.88;1035548;28;20004;-68
2022/02/06 02:01:25;;;;;;;;;;;;;;;-0.48;100.00;96221.25;1036181;28;20445;-68
2022/02/06 02:02:20;;;;;;;;;;;;;;;-0.55;100.00;96224.75;1028052;28;19960;-68
2022/02/06 02:03:02;;;;;;;;;;;;;;;-0.43;100.00;96222.50;1032308;28;20346;-67
2022/02/06 02:04:20;;;;;;;;;;;;;;;-0.44;100.00;96220.91;1040318;28;19964;-67
2022/02/06 02:09:19;;;;;;;;;;;;;;;-0.15;100.00;96218.25;1039836;28;19909;-67
2022/02/06 02:10:15;;;;;;;;;;;;;;;-0.14;100.00;96222.41;1036257;28;20309;-67
2022/02/06 02:14:06;;;;;;;;;;;;;;;-0.17;100.00;96214.25;1031416;28;20383;-67
2022/02/06 02:26:10;;;;;;;;;;;;;;;-0.03;100.00;96203.09;1033743;28;20462;-67
2022/02/06 02:26:50;;;;;;;;;;;;;;;-0.01;100.00;96199.31;1031708;28;19929;-67
2022/02/06 02:27:42;;;;;;;;;;;;;;;-0.01;100.00;96198.53;1037977;28;19992;-68
2022/02/06 02:31:38;;;;;;;;;;;;;;;-0.04;100.00;96186.78;1029626;28;19906;-68
2022/02/06 02:42:53;;;;;;;;;;;;;;;-0.10;100.00;96182.41;1043377;28;20594;-67
2022/02/06 02:43:06;;;;;;;;;;;;;;;0.16;100.00;96174.06;1031858;28;20028;-67
2022/02/06 02:45:24;;;;;;;;;;;;;;;0.12;100.00;96166.91;1031543;28;19918;-67
2022/02/06 02:47:44;;;;;;;;;;;;;;;0.06;100.00;96168.44;1019569;29;19919;-68
2022/02/06 02:48:18;;;;;;;;;;;;;;;0.11;100.00;96166.09;1019270;29;20097;-67
2022/02/06 02:48:49;;;;;;;;;;;;;;;0.08;100.00;96170.84;1019338;29;20494;-67
2022/02/06 02:49:22;;;;;;;;;;;;;;;0.11;100.00;96171.25;1017072;29;20034;-68
2022/02/06 02:49:57;;;;;;;;;;;;;;;0.06;100.00;96172.78;1023670;29;20618;-67
2022/02/06 02:50:27;;;;;;;;;;;;;;;0.03;100.00;96163.63;1024012;29;19946;-67
2022/02/06 02:51:03;;;;;;;;;;;;;;;0.09;100.00;96172.44;1018893;29;19915;-67
2022/02/06 02:51:39;;;;;;;;;;;;;;;0.09;100.00;96173.22;1015647;29;19915;-67
2022/02/06 02:52:18;;;;;;;;;;;;;;;0.05;100.00;96172.00;1017482;29;19919;-67
2022/02/06 02:53:28;;;;;;;;;;;;;;;-0.01;100.00;96167.56;1035648;28;19916;-64
2022/02/06 02:54:05;;;;;;;;;;;;;;;-0.03;100.00;96166.97;1039808;28;19909;-66
2022/02/06 02:54:37;;;;;;;;;;;;;;;-0.06;100.00;96167.34;1036068;28;19909;-67
2022/02/06 02:57:16;;;;;;;;;;;;;;;0.02;100.00;96177.53;1039191;28;19957;-65
2022/02/06 02:57:57;;;;;;;;;;;;;;;0.07;100.00;96164.88;1035503;28;20454;-67
2022/02/06 02:58:50;;;;;;;;;;;;;;;0.09;100.00;96168.06;1029752;28;19913;-65
2022/02/06 02:59:37;;;;;;;;;;;;;;;0.14;100.00;96164.94;1028321;28;19929;-66
2022/02/06 03:00:29;;;;;;;;;;;;;;;0.13;100.00;96173.66;1034099;28;19925;-66
2022/02/06 03:01:36;;;;;;;;;;;;;;;0.16;100.00;96176.66;1026354;28;19910;-67
2022/02/06 03:02:07;;;;;;;;;;;;;;;0.32;100.00;96167.06;1033626;28;19913;-66
2022/02/06 03:02:37;;;;;;;;;;;;;;;0.33;100.00;96168.63;1034716;28;19910;-68
2022/02/06 03:03:17;;;;;;;;;;;;;;;0.34;100.00;96160.72;1038896;28;19913;-66
2022/02/06 03:03:47;;;;;;;;;;;;;;;0.43;100.00;96158.78;1038122;28;20016;-67
2022/02/06 03:04:17;;;;;;;;;;;;;;;0.36;100.00;96160.53;1039123;28;19913;-68
2022/02/06 03:04:53;;;;;;;;;;;;;;;0.33;100.00;96148.78;1034771;28;20012;-66
2022/02/06 03:05:25;;;;;;;;;;;;;;;0.34;100.00;96159.94;1036624;28;19920;-68
2022/02/06 03:05:58;;;;;;;;;;;;;;;0.34;100.00;96154.78;1035016;28;20329;-68
2022/02/06 03:06:29;;;;;;;;;;;;;;;0.27;100.00;96153.91;1030736;28;19912;-68
2022/02/06 03:06:59;;;;;;;;;;;;;;;0.26;100.00;96144.56;1022348;28;20403;-67
2022/02/06 03:07:29;;;;;;;;;;;;;;;0.26;100.00;96155.69;1024282;28;19918;-69
2022/02/06 03:08:03;;;;;;;;;;;;;;;0.33;100.00;96150.56;1031349;28;20295;-68
2022/02/06 03:08:35;;;;;;;;;;;;;;;0.26;100.00;96157.47;1036456;28;20302;-68
2022/02/06 03:09:06;;;;;;;;;;;;;;;0.36;100.00;96152.78;1039280;28;19971;-66
2022/02/06 03:09:40;;;;;;;;;;;;;;;0.32;100.00;96146.41;1039174;28;19983;-68
2022/02/06 03:10:11;;;;;;;;;;;;;;;0.35;100.00;96140.88;1034958;28;19909;-67
2022/02/06 03:10:42;;;;;;;;;;;;;;;0.34;100.00;96149.59;1031240;28;19932;-67
2022/02/06 03:11:13;;;;;;;;;;;;;;;0.35;100.00;96143.44;1035285;28;19917;-68
2022/02/06 03:11:43;;;;;;;;;;;;;;;0.33;100.00;96146.22;1034815;28;19921;-68
2022/02/06 03:12:16;;;;;;;;;;;;;;;0.31;100.00;96147.41;1038607;28;19921;-68
2022/02/06 03:12:50;;;;;;;;;;;;;;;0.34;100.00;96140.06;1035082;28;19921;-68
2022/02/06 03:13:24;;;;;;;;;;;;;;;0.43;100.00;96144.09;1030171;28;19924;-65
2022/02/06 03:14:39;;;;;;;;;;;;;;;0.43;100.00;96132.97;1035839;28;19945;-68
2022/02/06 03:15:21;;;;;;;;;;;;;;;0.20;100.00;96107.41;1035282;28;19922;-67
2022/02/06 03:16:27;;;;;;;;;;;;;;;0.46;100.00;96132.59;1023183;29;20324;-67
2022/02/06 03:17:04;;;;;;;;;;;;;;;0.42;100.00;96139.13;1025122;28;19926;-67
2022/02/06 03:17:37;;;;;;;;;;;;;;;0.45;100.00;96138.75;1031506;28;19921;-67
2022/02/06 03:18:15;;;;;;;;;;;;;;;0.47;100.00;96131.63;1034759;28;19995;-67
2022/02/06 03:19:07;;;;;;;;;;;;;;;0.50;100.00;96133.81;1042987;28;20405;-68
2022/02/06 03:19:52;;;;;;;;;;;;;;;0.45;100.00;96134.38;1035225;28;20586;-68
2022/02/06 03:20:23;;;;;;;;;;;;;;;0.58;100.00;96125.13;1030756;28;19925;-68
2022/02/06 03:20:54;;;;;;;;;;;;;;;0.65;100.00;96121.59;1034593;28;19933;-68
2022/02/06 03:21:27;;;;;;;;;;;;;;;0.67;100.00;96129.13;1034818;28;20426;-67
2022/02/06 03:21:58;;;;;;;;;;;;;;;0.63;100.00;96131.31;1034485;28;19918;-67
2022/02/06 03:22:34;;;;;;;;;;;;;;;0.57;100.00;96128.69;1032341;28;20031;-68
2022/02/06 03:23:06;;;;;;;;;;;;;;;0.54;100.00;96129.88;1039127;28;20067;-68
2022/02/06 03:23:48;;;;;;;;;;;;;;;0.48;100.00;96122.88;1038815;28;20020;-68
2022/02/06 03:24:23;;;;;;;;;;;;;;;0.52;100.00;96131.84;1038839;28;19928;-67
2022/02/06 03:24:59;;;;;;;;;;;;;;;0.49;100.00;96126.25;1035062;28;20705;-68
2022/02/06 03:25:29;;;;;;;;;;;;;;;0.50;100.00;96125.28;1034923;28;19924;-67
2022/02/06 03:26:00;;;;;;;;;;;;;;;0.50;100.00;96120.91;1033702;28;19933;-68
2022/02/06 03:26:30;;;;;;;;;;;;;;;0.51;100.00;96117.34;1034803;28;19921;-67
2022/02/06 03:27:00;;;;;;;;;;;;;;;0.44;100.00;96124.25;1034971;28;19922;-68
2022/02/06 03:27:31;;;;;;;;;;;;;;;0.53;100.00;96119.72;1036347;28;19917;-68
2022/02/06 03:28:02;;;;;;;;;;;;;;;0.30;100.00;96087.22;1038911;28;19921;-68
2022/02/06 03:28:32;;;;;;;;;;;;;;;0.50;100.00;96120.09;1034384;28;19949;-68
2022/02/06 03:29:02;;;;;;;;;;;;;;;0.49;100.00;96116.72;1026580;28;19921;-69
2022/02/06 03:29:33;;;;;;;;;;;;;;;0.51;100.00;96111.41;1030217;28;20419;-68
2022/02/06 03:30:03;;;;;;;;;;;;;;;0.55;100.00;96110.81;1031155;28;19918;-67
2022/02/06 03:30:34;;;;;;;;;;;;;;;0.55;100.00;96115.97;1030666;28;20008;-68
2022/02/06 03:31:05;;;;;;;;;;;;;;;0.56;100.00;96114.97;1030627;28;19918;-67
2022/02/06 03:31:38;;;;;;;;;;;;;;;0.53;100.00;96107.63;1027305;28;19922;-67
2022/02/06 03:32:09;;;;;;;;;;;;;;;0.50;100.00;96115.72;1031030;28;19920;-67
2022/02/06 03:32:39;;;;;;;;;;;;;;;0.53;100.00;96112.78;1031922;28;20410;-68
2022/02/06 03:33:09;;;;;;;;;;;;;;;0.53;100.00;96107.63;1039471;28;19917;-67
2022/02/06 03:33:40;;;;;;;;;;;;;;;0.57;100.00;96113.19;1034272;28;19917;-68
2022/02/06 03:34:10;;;;;;;;;;;;;;;0.59;100.00;96117.19;1032071;28;20077;-67
2022/02/06 03:34:41;;;;;;;;;;;;;;;0.59;100.00;96114.59;1024668;29;19946;-68
2022/02/06 03:35:11;;;;;;;;;;;;;;;0.59;100.00;96117.19;1024711;28;19949;-68
2022/02/06 03:35:41;;;;;;;;;;;;;;;0.59;100.00;96113.81;1032313;28;20470;-68
2022/02/06 03:36:12;;;;;;;;;;;;;;;0.62;100.00;96111.66;1031977;28;19976;-69
2022/02/06 03:36:42;;;;;;;;;;;;;;;0.63;100.00;96115.81;1024055;29;19929;-68
2022/02/06 03:37:12;;;;;;;;;;;;;;;0.66;100.00;96112.84;1028676;28;19925;-68
2022/02/06 03:37:43;;;;;;;;;;;;;;;0.68;100.00;96116.06;1027778;28;19968;-68
2022/02/06 03:38:13;;;;;;;;;;;;;;;0.66;100.00;96115.44;1028139;28;19922;-68
2022/02/06 03:38:45;;;;;;;;;;;;;;;0.64;100.00;96117.44;1023984;29;19918;-68
2022/02/06 03:39:17;;;;;;;;;;;;;;;0.58;100.00;96115.59;1027413;28;19918;-67
2022/02/06 03:39:51;;;;;;;;;;;;;;;0.59;100.00;96122.34;1031162;28;19918;-68
2022/02/06 03:40:27;;;;;;;;;;;;;;;0.61;100.00;96111.84;1031948;28;19928;-69
2022/02/06 03:41:03;;;;;;;;;;;;;;;0.58;100.00;96118.19;1036774;28;19917;-69
2022/02/06 03:42:37;;;;;;;;;;;;;;;0.73;100.00;96106.94;1026133;28;19972;-68
2022/02/06 03:43:50;;;;;;;;;;;;;;;0.75;100.00;96113.50;1034770;28;19944;-68
2022/02/06 03:44:26;;;;;;;;;;;;;;;0.73;100.00;96122.44;1034988;28;20044;-68
2022/02/06 03:45:02;;;;;;;;;;;;;;;0.78;100.00;96107.97;1028897;28;19929;-68
2022/02/06 03:45:40;;;;;;;;;;;;;;;0.77;100.00;96105.56;1022943;29;19923;-68
2022/02/06 03:46:18;;;;;;;;;;;;;;;0.73;100.00;96112.09;1026754;28;19933;-68
2022/02/06 03:47:06;;;;;;;;;;;;;;;0.73;100.00;96112.09;1032761;28;19913;-67
2022/02/06 03:47:51;;;;;;;;;;;;;;;0.74;100.00;96105.94;1034716;28;20016;-68
2022/02/06 03:48:27;;;;;;;;;;;;;;;0.76;100.00;96111.72;1026976;28;19922;-67
2022/02/06 03:49:06;;;;;;;;;;;;;;;0.73;100.00;96105.13;1018768;29;19982;-68
2022/02/06 03:49:52;;;;;;;;;;;;;;;0.78;100.00;96104.59;1026542;28;20531;-69
2022/02/06 03:50:32;;;;;;;;;;;;;;;0.77;100.00;96103.78;1026805;28;19914;-69
2022/02/06 03:51:06;;;;;;;;;;;;;;;0.78;100.00;96094.25;1034190;28;19921;-69
2022/02/06 03:51:38;;;;;;;;;;;;;;;0.78;100.00;96102.00;1030460;28;19922;-68
2022/02/06 03:52:08;;;;;;;;;;;;;;;0.70;100.00;96101.19;1030848;28;20306;-69
2022/02/06 03:52:50;;;;;;;;;;;;;;;0.69;100.00;96102.16;1031419;28;19918;-69
2022/02/06 03:53:24;;;;;;;;;;;;;;;0.72;100.00;96097.59;1034579;28;19925;-65
2022/02/06 03:53:54;;;;;;;;;;;;;;;0.70;100.00;96093.44;1034674;28;19917;-69
2022/02/06 03:54:24;;;;;;;;;;;;;;;0.72;100.00;96084.69;1030715;28;19953;-69
2022/02/06 03:54:55;;;;;;;;;;;;;;;0.73;100.00;96084.47;1030937;28;20551;-69
2022/02/06 03:55:26;;;;;;;;;;;;;;;0.72;100.00;96095.81;1033920;28;19917;-69
2022/02/06 03:55:58;;;;;;;;;;;;;;;0.72;100.00;96090.66;1034974;28;19918;-68
2022/02/06 03:56:30;;;;;;;;;;;;;;;0.70;100.00;96093.44;1034854;28;19921;-69
2022/02/06 03:57:00;;;;;;;;;;;;;;;0.72;100.00;96089.84;1030654;28;19953;-69
2022/02/06 03:57:31;;;;;;;;;;;;;;;0.73;100.00;96086.28;1031285;28;19925;-69
2022/02/06 03:58:01;;;;;;;;;;;;;;;0.68;100.00;96090.22;1035271;28;19917;-69
2022/02/06 03:58:31;;;;;;;;;;;;;;;0.72;100.00;96084.69;1034639;28;19917;-69
2022/02/06 03:59:02;;;;;;;;;;;;;;;0.77;100.00;96082.31;1035064;28;19925;-67
2022/02/06 03:59:34;;;;;;;;;;;;;;;0.81;100.00;96083.53;1030573;28;19979;-69
2022/02/06 04:00:05;;;;;;;;;;;;;;;0.83;100.00;96081.53;1027204;28;20000;-68
2022/02/06 04:00:35;;;;;;;;;;;;;;;0.79;100.00;96090.66;1038182;28;20074;-68
2022/02/06 04:01:06;;;;;;;;;;;;;;;0.84;100.00;96080.53;1034775;28;19924;-68
2022/02/06 04:01:36;;;;;;;;;;;;;;;0.85;100.00;96077.00;1034957;28;19921;-68
2022/02/06 04:02:06;;;;;;;;;;;;;;;0.83;100.00;96084.13;1038812;28;19921;-68
2022/02/06 04:02:36;;;;;;;;;;;;;;;0.84;100.00;96081.38;1038839;28;19913;-68
2022/02/06 04:03:07;;;;;;;;;;;;;;;0.89;100.00;96080.78;1038939;28;19913;-69
2022/02/06 04:03:40;;;;;;;;;;;;;;;0.90;100.00;96084.94;1033855;28;19917;-68
2022/02/06 04:04:10;;;;;;;;;;;;;;;0.87;100.00;96093.06;1030677;28;19924;-67
2022/02/06 04:04:40;;;;;;;;;;;;;;;0.87;100.00;96080.16;1027092;28;19972;-68
2022/02/06 04:05:11;;;;;;;;;;;;;;;0.90;100.00;96078.00;1026589;28;19930;-67
2022/02/06 04:05:46;;;;;;;;;;;;;;;0.84;100.00;96077.97;1026515;28;19951;-68
2022/02/06 04:06:16;;;;;;;;;;;;;;;0.80;100.00;96076.75;1022802;29;19922;-68
2022/02/06 04:06:47;;;;;;;;;;;;;;;0.79;100.00;96080.34;1022788;29;19929;-68
2022/02/06 04:07:17;;;;;;;;;;;;;;;0.86;100.00;96076.78;1023612;28;19926;-68
2022/02/06 04:07:48;;;;;;;;;;;;;;;0.87;100.00;96068.06;1027356;28;19922;-68
2022/02/06 04:08:19;;;;;;;;;;;;;;;0.92;100.00;96072.66;1035220;28;19916;-66